Time;durP1;ratioP1;P1;durP2;ratioP2;P2;SDS_P1;SDS_P2;PMS_P1;PMS_P2;Temp;Humidity;BMP_temperature;BMP_pressure;BME280_temperature;BME280_humidity;BME280_pressure;Samples;Min_cycle;Max_cycle;Signal;HPM_P1;HPM_P2
2022/08/28 00:00:20;;;;;;;30.50;27.40;;;18.10;99.90;;;19.27;91.10;97759.06;5071235;28;20460;-83
2022/08/28 00:02:50;;;;;;;31.50;28.00;;;18.20;99.90;;;19.71;90.33;97837.81;5052600;28;20490;-80
2022/08/28 00:05:20;;;;;;;33.23;27.93;;;18.20;99.90;;;19.52;91.22;97826.63;5064014;28;20904;-79
2022/08/28 00:07:49;;;;;;;32.63;29.23;;;18.10;99.90;;;19.51;91.61;97836.78;5070772;28;20483;-80
2022/08/28 00:10:19;;;;;;;35.87;30.17;;;18.10;99.90;;;19.57;90.97;97839.50;5061031;28;20466;-83
2022/08/28 00:12:48;;;;;;;32.27;29.03;;;18.10;99.90;;;19.60;90.45;97834.31;5070115;28;20459;-83
2022/08/28 00:15:21;;;;;;;31.60;28.20;;;18.10;99.90;;;19.42;90.50;97816.53;5084466;28;20458;-74
2022/08/28 00:17:50;;;;;;;34.33;28.50;;;18.00;99.90;;;19.20;91.75;97836.03;5088966;28;20444;-78
2022/08/28 00:20:22;;;;;;;33.87;29.87;;;17.90;99.90;;;19.11;91.95;97833.03;5090289;28;20511;-76
2022/08/28 00:22:51;;;;;;;32.60;28.33;;;17.80;99.90;;;19.07;91.42;97815.53;5077089;28;20442;-77
2022/08/28 00:25:22;;;;;;;31.53;28.13;;;17.80;99.90;;;19.17;91.25;97842.06;5062701;28;20512;-83
2022/08/28 00:27:53;;;;;;;34.60;27.83;;;17.80;99.90;;;18.87;91.05;97773.34;5064068;28;20452;-83
2022/08/28 00:30:26;;;;;;;34.43;30.73;;;17.80;99.90;;;19.25;90.81;97833.28;5064678;28;20477;-77
2022/08/28 00:32:59;;;;;;;36.60;29.87;;;17.70;99.90;;;19.13;90.56;97836.31;5064356;28;20469;-82
2022/08/28 00:35:27;;;;;;;31.90;28.23;;;17.70;99.90;;;19.17;90.77;97840.13;5056378;28;20486;-78
2022/08/28 00:37:56;;;;;;;35.40;28.13;;;17.70;99.90;;;19.18;90.48;97833.56;5063631;28;23052;-78
2022/08/28 00:40:26;;;;;;;31.80;28.27;;;17.70;99.90;;;19.15;89.93;97842.34;5062289;28;20870;-82
2022/08/28 00:42:56;;;;;;;34.17;29.27;;;17.70;99.90;;;19.01;90.36;97844.00;5066040;28;20458;-82
2022/08/28 00:45:25;;;;;;;32.20;27.80;;;17.60;99.90;;;19.14;90.20;97843.44;5057134;28;21004;-83
2022/08/28 00:47:55;;;;;;;33.00;28.87;;;17.60;99.90;;;19.02;90.85;97842.88;5064509;28;20492;-82
2022/08/28 00:50:28;;;;;;;32.63;28.53;;;17.60;99.90;;;18.91;91.19;97840.16;5066689;28;21034;-81
2022/08/28 00:52:58;;;;;;;32.13;28.77;;;17.50;99.90;;;19.03;90.38;97844.53;5059263;28;20455;-80
2022/08/28 00:55:29;;;;;;;32.23;28.83;;;17.60;99.90;;;18.73;91.07;97819.63;5062761;28;20453;-80
2022/08/28 00:57:59;;;;;;;32.03;28.53;;;17.50;99.90;;;18.84;91.20;97834.13;5061237;28;20451;-80
2022/08/28 01:00:32;;;;;;;32.30;27.50;;;17.50;99.90;;;18.44;90.22;97765.44;5081421;28;20464;-76
2022/08/28 01:03:01;;;;;;;40.70;28.47;;;17.50;99.90;;;18.89;90.28;97839.59;5059044;28;20566;-78
2022/08/28 01:05:29;;;;;;;34.27;29.03;;;17.50;99.90;;;18.90;90.45;97834.94;5065456;28;20560;-77
2022/08/28 01:07:58;;;;;;;30.80;27.20;;;17.40;99.90;;;19.06;89.48;97841.28;5062086;28;20456;-79
2022/08/28 01:10:30;;;;;;;30.17;26.87;;;17.40;99.90;;;18.78;90.61;97840.69;5063123;28;20480;-76
2022/08/28 01:12:59;;;;;;;30.53;27.43;;;17.30;99.90;;;18.73;90.44;97832.47;5071596;28;20495;-78
2022/08/28 01:15:34;;;;;;;39.73;31.27;;;17.40;99.90;;;18.92;90.76;97846.44;5058677;28;20469;-80
2022/08/28 01:18:09;;;;;;;32.50;29.00;;;17.30;99.90;;;18.87;90.33;97844.50;5056697;28;21080;-79
2022/08/28 01:20:45;;;;;;;35.40;29.90;;;17.40;99.90;;;18.96;90.01;97840.13;5057083;28;20456;-81
2022/08/28 01:23:20;;;;;;;36.90;28.17;;;17.40;99.90;;;18.86;90.07;97839.34;5054306;28;20452;-80
2022/08/28 01:25:51;;;;;;;35.43;30.17;;;17.30;99.90;;;18.75;90.55;97836.59;5065254;28;20486;-81
2022/08/28 01:28:18;;;;;;;33.70;30.03;;;17.30;99.90;;;18.72;90.39;97848.09;5062816;28;20465;-78
2022/08/28 01:30:48;;;;;;;32.43;28.97;;;17.30;99.90;;;18.85;90.33;97854.91;5060189;28;20478;-80
2022/08/28 01:33:16;;;;;;;34.50;28.30;;;17.30;99.90;;;18.73;89.60;97837.94;5066443;28;20453;-80
2022/08/28 01:35:47;;;;;;;35.53;28.47;;;17.30;99.90;;;19.06;88.71;97846.75;5054524;28;20461;-78
2022/08/28 01:38:15;;;;;;;33.73;30.03;;;17.30;99.90;;;18.93;88.47;97816.06;5066825;28;20477;-78
2022/08/28 01:40:47;;;;;;;32.87;28.80;;;17.30;99.90;;;18.88;88.71;97846.19;5069612;28;20465;-78
2022/08/28 01:43:20;;;;;;;37.57;27.83;;;17.40;99.90;;;18.75;89.43;97831.09;5061941;28;20464;-79
2022/08/28 01:45:51;;;;;;;32.00;27.80;;;17.30;99.90;;;18.65;90.50;97839.31;5070329;28;20449;-77
2022/08/28 01:48:20;;;;;;;38.23;29.77;;;17.20;99.90;;;18.71;90.19;97840.13;5066118;28;20469;-81
2022/08/28 01:50:49;;;;;;;31.70;27.30;;;17.20;99.90;;;18.76;90.29;97831.94;5054290;28;20584;-78
2022/08/28 01:53:22;;;;;;;35.27;29.20;;;17.30;99.90;;;18.83;89.73;97837.94;5069154;28;20501;-80
2022/08/28 01:55:50;;;;;;;35.03;29.50;;;17.30;99.90;;;18.76;89.90;97831.94;5064561;28;20472;-79
2022/08/28 01:58:20;;;;;;;36.47;30.03;;;17.20;99.90;;;18.81;89.56;97829.19;5066257;28;20529;-79
2022/08/28 02:00:48;;;;;;;32.77;29.27;;;17.20;99.90;;;18.68;89.80;97825.91;5068812;28;20449;-81
2022/08/28 02:03:16;;;;;;;38.50;27.60;;;17.20;99.90;;;18.88;89.63;97839.88;5057204;28;20456;-80
2022/08/28 02:05:44;;;;;;;31.97;27.77;;;17.20;99.90;;;18.74;89.53;97839.63;5062806;28;20468;-78
2022/08/28 02:08:12;;;;;;;33.40;29.20;;;17.20;99.90;;;18.55;91.12;97842.84;5054093;28;20485;-77
2022/08/28 02:10:43;;;;;;;38.23;28.93;;;17.20;99.90;;;18.49;91.15;97836.56;5066196;28;20472;-81
2022/08/28 02:13:11;;;;;;;31.67;27.70;;;17.10;99.90;;;18.49;90.54;97838.50;5070966;28;20465;-80
2022/08/28 02:15:42;;;;;;;30.83;27.53;;;17.10;99.90;;;18.46;90.68;97833.56;5058389;28;21176;-79
2022/08/28 02:18:10;;;;;;;29.83;26.63;;;17.10;99.90;;;18.59;90.78;97845.88;5067760;28;20456;-79
2022/08/28 02:20:39;;;;;;;31.00;27.43;;;17.10;99.90;;;18.55;90.54;97842.84;5058301;28;20552;-77
2022/08/28 02:23:06;;;;;;;30.23;26.77;;;17.10;99.90;;;18.41;90.78;97843.38;5061872;28;20461;-78
2022/08/28 02:25:33;;;;;;;31.90;27.03;;;17.10;99.90;;;18.35;89.85;97802.63;5058849;28;20486;-74
2022/08/28 02:28:01;;;;;;;31.53;28.00;;;17.10;99.90;;;18.47;90.43;97846.16;5060472;28;20482;-81
2022/08/28 02:30:29;;;;;;;37.97;28.90;;;17.10;99.90;;;18.68;89.72;97852.47;5061550;28;20492;-76
2022/08/28 02:32:57;;;;;;;29.80;26.17;;;17.10;99.90;;;18.79;89.07;97845.88;5074376;28;20454;-76
2022/08/28 02:35:26;;;;;;;32.00;27.40;;;17.10;99.90;;;18.61;89.92;97835.47;5073173;28;20437;-79
2022/08/28 02:37:53;;;;;;;31.83;27.97;;;17.10;99.90;;;18.88;88.76;97842.59;5074163;28;20476;-76
2022/08/28 02:40:24;;;;;;;32.27;27.47;;;17.10;99.90;;;18.83;88.89;97840.69;5066671;28;20457;-78
2022/08/28 02:42:51;;;;;;;30.00;26.97;;;17.20;99.90;;;18.86;88.67;97848.34;5044738;28;20457;-77
2022/08/28 02:45:21;;;;;;;33.37;28.60;;;17.20;99.90;;;18.73;89.36;97844.25;5063492;28;20540;-76
2022/08/28 02:47:51;;;;;;;33.90;27.10;;;17.20;99.90;;;18.75;89.04;97849.47;5059955;28;20499;-77
2022/08/28 02:50:21;;;;;;;33.40;27.93;;;17.10;99.90;;;18.76;88.59;97845.63;5054758;28;20478;-79
2022/08/28 02:52:49;;;;;;;30.83;25.47;;;17.10;99.90;;;18.32;88.35;97773.09;5067359;28;20463;-78
2022/08/28 02:55:19;;;;;;;32.03;28.37;;;17.10;99.90;;;18.63;89.04;97842.34;5067984;28;20529;-80
2022/08/28 02:57:48;;;;;;;29.13;26.03;;;17.10;99.90;;;18.78;88.36;97836.03;5063816;28;20460;-80
2022/08/28 03:00:20;;;;;;;31.90;28.60;;;17.10;99.90;;;18.93;87.96;97840.69;5084277;28;20817;-78
2022/08/28 03:02:48;;;;;;;30.20;26.87;;;17.20;99.90;;;18.44;89.30;97820.16;5064046;28;21235;-77
2022/08/28 03:05:20;;;;;;;32.27;28.63;;;17.10;99.90;;;18.45;90.42;97838.19;5070410;28;20562;-78
2022/08/28 03:07:47;;;;;;;29.40;26.40;;;17.00;99.90;;;18.57;89.88;97846.13;5071057;28;20454;-76
2022/08/28 03:10:15;;;;;;;34.50;28.57;;;17.00;99.90;;;18.49;90.35;97843.97;5072184;28;20992;-78
2022/08/28 03:12:43;;;;;;;30.60;27.40;;;17.00;99.90;;;18.48;89.60;97848.59;5072649;28;20487;-74
2022/08/28 03:15:12;;;;;;;29.67;25.87;;;17.00;99.90;;;18.52;89.35;97843.41;5058220;28;21339;-75
2022/08/28 03:17:40;;;;;;;30.83;25.10;;;17.10;99.90;;;18.49;89.90;97838.50;5069770;28;20448;-78
2022/08/28 03:20:11;;;;;;;33.00;27.90;;;17.00;99.90;;;18.50;89.57;97813.63;5072748;28;21202;-77
2022/08/28 03:25:28;;;;;;;30.37;26.03;;;17.10;99.90;;;18.28;90.54;97843.94;5064856;28;20467;-77
2022/08/28 03:27:56;;;;;;;30.50;27.30;;;17.00;99.90;;;18.43;90.37;97834.13;5070630;28;20441;-78
2022/08/28 03:30:25;;;;;;;31.57;26.40;;;17.00;99.90;;;18.44;89.88;97833.81;5069621;28;21054;-77
2022/08/28 03:32:54;;;;;;;29.73;26.37;;;17.00;99.90;;;18.29;90.44;97845.56;5061791;28;20459;-80
2022/08/28 03:35:22;;;;;;;30.30;26.53;;;16.90;99.90;;;17.94;90.67;97814.28;5062773;28;20474;-79
2022/08/28 03:37:50;;;;;;;31.07;27.70;;;17.00;99.90;;;18.38;89.90;97838.47;5066892;28;20827;-75
2022/08/28 03:40:18;;;;;;;29.40;26.20;;;16.90;99.90;;;17.83;90.60;97778.72;5064179;28;20463;-77
2022/08/28 03:42:45;;;;;;;28.67;25.50;;;16.90;99.90;;;18.22;89.89;97815.75;5059714;28;20870;-76
2022/08/28 03:45:14;;;;;;;29.10;26.10;;;17.00;99.90;;;18.17;90.09;97825.84;5073030;28;20832;-78
2022/08/28 03:47:42;;;;;;;29.07;25.97;;;17.00;99.90;;;18.27;90.21;97853.19;5061864;28;20463;-77
2022/08/28 03:50:12;;;;;;;30.00;26.83;;;16.90;99.90;;;18.57;89.27;97845.34;5060124;28;20473;-77
2022/08/28 03:52:40;;;;;;;29.57;26.40;;;17.00;99.90;;;18.38;89.39;97848.59;5063085;28;20516;-77
2022/08/28 03:55:12;;;;;;;29.53;26.40;;;17.00;99.90;;;18.19;90.51;97856.47;5062432;28;20483;-77
2022/08/28 03:57:40;;;;;;;33.73;26.33;;;17.00;99.90;;;18.48;89.31;97853.25;5056971;28;20453;-78
2022/08/28 04:00:13;;;;;;;31.63;28.43;;;17.00;99.90;;;18.33;89.15;97846.66;5058336;28;20552;-77
2022/08/28 04:02:40;;;;;;;29.97;26.83;;;17.00;99.90;;;18.75;88.03;97858.47;5069080;28;20984;-76
2022/08/28 04:05:10;;;;;;;28.03;25.03;;;17.10;99.90;;;18.67;88.31;97862.56;5069818;28;20469;-76
2022/08/28 04:07:38;;;;;;;27.83;25.03;;;17.10;99.90;;;18.73;87.93;97851.63;5056564;28;20495;-76
2022/08/28 04:10:06;;;;;;;29.70;26.50;;;17.10;99.90;;;18.44;88.90;97863.09;5093668;28;20463;-78
2022/08/28 04:12:36;;;;;;;30.57;26.03;;;17.10;99.90;;;18.66;88.23;97865.59;5052587;28;20567;-77
2022/08/28 04:15:05;;;;;;;29.17;25.93;;;17.10;99.90;;;18.60;87.82;97862.03;5056328;28;20521;-79
2022/08/28 04:17:32;;;;;;;28.17;25.30;;;17.20;99.90;;;18.59;87.54;97865.88;5058952;28;20550;-76
2022/08/28 04:19:59;;;;;;;28.73;25.67;;;17.10;99.90;;;18.58;87.54;97864.22;5060480;28;20545;-80
2022/08/28 04:22:26;;;;;;;30.43;27.43;;;17.10;99.90;;;18.65;87.93;97863.94;5052164;28;20457;-77
2022/08/28 04:24:54;;;;;;;29.27;26.17;;;17.20;99.90;;;18.75;87.71;97874.09;5055315;28;21620;-76
2022/08/28 04:27:22;;;;;;;29.43;26.33;;;17.20;99.90;;;18.86;86.20;97872.16;5051983;28;20454;-76
2022/08/28 04:29:50;;;;;;;28.23;25.37;;;17.30;99.90;;;18.48;88.00;97878.69;5061799;28;20526;-76
2022/08/28 04:32:18;;;;;;;27.70;24.97;;;17.10;99.90;;;18.59;87.66;97882.28;5063941;28;20481;-76
2022/08/28 04:34:45;;;;;;;29.63;26.53;;;17.10;99.90;;;18.49;87.70;97882.25;5066133;28;20484;-75
2022/08/28 04:37:12;;;;;;;29.13;25.87;;;17.00;99.90;;;18.64;87.67;97876.81;5060057;28;20455;-76
2022/08/28 04:39:41;;;;;;;28.37;25.53;;;17.10;99.90;;;18.54;87.37;97868.56;5072131;28;20801;-76
2022/08/28 04:42:08;;;;;;;28.80;23.90;;;17.10;99.90;;;18.44;87.84;97879.53;5056659;28;20460;-76
2022/08/28 04:44:36;;;;;;;30.13;26.20;;;17.00;99.90;;;18.87;86.25;97882.03;5054072;28;20829;-77
2022/08/28 04:47:05;;;;;;;29.70;25.70;;;17.20;99.90;;;18.56;87.32;97888.28;5071970;28;20464;-74
2022/08/28 04:49:35;;;;;;;27.73;24.83;;;17.10;99.90;;;18.53;87.50;97886.09;5071779;28;20611;-75
2022/08/28 04:52:02;;;;;;;28.30;25.30;;;17.10;99.90;;;18.44;87.74;97874.03;5078741;28;20472;-73
2022/08/28 04:54:32;;;;;;;25.40;22.80;;;17.10;99.90;;;18.53;87.30;97891.56;5076822;28;20528;-78
2022/08/28 04:57:00;;;;;;;26.07;23.30;;;17.10;99.90;;;18.41;87.35;97876.19;5062160;28;20483;-77
2022/08/28 04:59:29;;;;;;;26.30;23.80;;;17.10;99.90;;;18.59;87.11;97890.50;5060293;28;20574;-75
2022/08/28 05:01:56;;;;;;;27.77;25.00;;;17.20;99.90;;;18.61;86.86;97899.25;5061120;28;20469;-78
2022/08/28 05:04:26;;;;;;;27.90;23.47;;;17.20;99.90;;;18.61;86.77;97890.19;5070756;28;20460;-77
2022/08/28 05:06:54;;;;;;;27.37;24.73;;;17.20;99.90;;;18.50;86.71;97878.41;5068975;28;20552;-77
2022/08/28 05:09:22;;;;;;;27.70;24.70;;;17.20;99.90;;;18.96;85.44;97892.16;5078593;28;20536;-78
2022/08/28 05:11:51;;;;;;;27.03;24.20;;;17.30;99.90;;;18.74;85.76;97894.34;5064845;28;20459;-77
2022/08/28 05:14:19;;;;;;;27.50;24.60;;;17.30;99.90;;;18.72;86.18;97901.97;5060622;28;20456;-77
2022/08/28 05:16:52;;;;;;;26.57;23.87;;;17.20;99.90;;;18.64;85.22;97867.75;5067414;28;20556;-77
2022/08/28 05:19:21;;;;;;;24.00;21.50;;;17.30;99.90;;;18.91;85.00;97894.91;5069013;28;20446;-78
2022/08/28 05:21:53;;;;;;;26.43;24.03;;;17.30;99.90;;;19.02;84.08;97897.66;5062188;28;20441;-79
2022/08/28 05:24:21;;;;;;;26.40;22.73;;;17.40;99.90;;;19.01;84.16;97899.56;5053087;28;20457;-77
2022/08/28 05:26:49;;;;;;;27.67;23.10;;;17.50;99.90;;;18.74;84.96;97902.53;5052604;28;20460;-77
2022/08/28 05:29:19;;;;;;;25.30;22.90;;;17.40;99.90;;;18.85;84.96;97908.84;5067358;28;20548;-77
2022/08/28 05:31:47;;;;;;;24.40;22.07;;;17.40;99.90;;;18.86;84.81;97913.22;5064667;28;20477;-77
2022/08/28 05:34:15;;;;;;;24.40;21.90;;;17.40;99.90;;;18.93;84.59;97908.28;5047555;28;20464;-78
2022/08/28 05:36:44;;;;;;;25.60;23.07;;;17.40;99.90;;;19.05;84.02;97916.28;5077417;28;20464;-77
2022/08/28 05:39:13;;;;;;;25.07;22.40;;;17.40;99.90;;;18.88;84.64;97916.50;5061199;28;20540;-75
2022/08/28 05:41:43;;;;;;;22.00;19.80;;;17.40;99.90;;;18.87;84.00;97907.47;5057868;28;20453;-73
2022/08/28 05:44:13;;;;;;;22.77;20.67;;;17.40;99.90;;;19.39;82.28;97918.44;5049663;28;20460;-70
2022/08/28 05:46:46;;;;;;;21.50;19.47;;;17.60;99.90;;;19.52;81.43;97925.28;5054078;28;20487;-71
2022/08/28 05:49:14;;;;;;;23.50;21.03;;;17.80;99.90;;;19.69;80.95;97927.72;5044300;28;20472;-71
2022/08/28 05:51:47;;;;;;;21.50;19.60;;;17.90;99.90;;;19.77;80.04;97916.16;5060220;28;20475;-71
2022/08/28 05:54:16;;;;;;;23.50;21.10;;;18.10;99.90;;;19.77;80.07;97927.13;5058455;28;20468;-71
2022/08/28 05:56:45;;;;;;;20.27;18.33;;;18.10;99.90;;;19.78;80.03;97934.25;5057729;28;20552;-71
2022/08/28 05:59:14;;;;;;;22.10;19.77;;;18.20;99.90;;;19.94;79.22;97932.34;5059022;28;20467;-71
2022/08/28 06:01:45;;;;;;;20.17;18.20;;;18.30;99.90;;;19.88;79.24;97930.69;5057605;28;20784;-73
2022/08/28 06:04:16;;;;;;;21.43;19.53;;;18.30;99.90;;;20.11;78.82;97933.91;5060951;28;20973;-76
2022/08/28 06:06:44;;;;;;;22.73;20.30;;;18.40;99.90;;;20.11;78.31;97931.19;5054531;28;20464;-74
2022/08/28 06:09:14;;;;;;;21.07;19.00;;;18.40;99.90;;;19.84;77.89;97898.63;5047173;28;20457;-74
2022/08/28 06:11:44;;;;;;;20.17;18.20;;;18.50;99.90;;;20.13;78.39;97928.16;5049416;28;20499;-74
2022/08/28 06:14:14;;;;;;;20.73;18.73;;;18.50;99.90;;;20.20;77.94;97931.41;5050810;28;20456;-74
2022/08/28 06:16:47;;;;;;;20.10;18.13;;;18.60;99.90;;;20.29;78.15;97924.25;5051727;28;20460;-73
2022/08/28 06:19:15;;;;;;;19.13;17.20;;;18.60;99.90;;;20.45;77.16;97924.16;5050444;28;20465;-72
2022/08/28 06:21:45;;;;;;;20.70;18.90;;;18.70;99.90;;;20.31;77.23;97923.94;5053307;28;20456;-73
2022/08/28 06:24:13;;;;;;;18.87;16.80;;;18.70;99.90;;;20.50;76.25;97935.09;5050609;28;20484;-77
2022/08/28 06:26:41;;;;;;;18.10;16.47;;;18.80;99.90;;;20.37;75.88;97948.34;5050728;28;20453;-74
2022/08/28 06:29:14;;;;;;;18.87;17.07;;;18.80;98.90;;;20.24;76.16;97936.06;5050239;28;20474;-75
2022/08/28 06:31:41;;;;;;;19.83;17.87;;;18.80;98.80;;;20.17;76.74;97951.19;5054464;28;20514;-75
2022/08/28 06:34:10;;;;;;;19.77;18.07;;;18.60;99.90;;;20.04;77.72;97942.44;5053675;28;20453;-74
2022/08/28 06:36:41;;;;;;;18.17;16.43;;;18.50;99.90;;;19.96;77.32;97943.03;5055670;28;20486;-76
2022/08/28 06:39:13;;;;;;;18.23;16.43;;;18.50;99.90;;;19.88;77.65;97943.56;5051976;28;20497;-75
2022/08/28 06:41:42;;;;;;;18.47;16.67;;;18.40;99.90;;;20.24;77.30;97946.19;5052621;28;26869;-74
2022/08/28 06:44:12;;;;;;;18.63;16.63;;;18.50;99.90;;;20.52;75.68;97949.38;5057399;28;20546;-72
2022/08/28 06:46:41;;;;;;;18.20;16.53;;;18.70;99.90;;;20.69;74.44;97948.16;5094216;28;21011;-72
2022/08/28 06:49:09;;;;;;;17.87;16.00;;;19.00;97.80;;;20.95;73.84;97943.38;5058650;28;20452;-72
2022/08/28 06:51:36;;;;;;;18.50;16.70;;;19.20;97.30;;;21.04;72.84;97952.63;5087426;28;20789;-72
2022/08/28 06:54:04;;;;;;;17.57;15.80;;;19.40;96.30;;;21.19;72.58;97959.94;5084741;28;20523;-71
2022/08/28 06:56:33;;;;;;;17.67;15.77;;;19.40;96.10;;;21.10;73.06;97953.41;5081333;28;20470;-72
2022/08/28 06:59:02;;;;;;;15.90;14.60;;;19.50;95.90;;;21.32;72.05;97952.97;5052306;28;20457;-72
2022/08/28 07:01:33;;;;;;;16.77;15.30;;;19.50;95.20;;;21.36;71.92;97958.72;5056814;28;20461;-72
2022/08/28 07:04:05;;;;;;;14.80;13.43;;;19.60;95.30;;;21.34;71.82;97948.00;5055761;28;20495;-71
2022/08/28 07:06:35;;;;;;;16.10;14.60;;;19.70;94.80;;;21.33;71.44;97957.34;5060413;28;20869;-72
2022/08/28 07:09:06;;;;;;;15.70;14.00;;;19.60;94.40;;;21.43;71.30;97953.69;5063572;28;20663;-72
2022/08/28 07:11:35;;;;;;;15.97;14.50;;;19.70;94.40;;;21.58;70.46;97949.16;5068678;28;21217;-70
2022/08/28 07:14:05;;;;;;;16.23;14.73;;;19.80;94.20;;;21.66;70.27;97959.56;5067777;28;20463;-71
2022/08/28 07:16:37;;;;;;;14.87;13.43;;;20.00;93.70;;;21.77;70.34;97963.88;5063530;28;20925;-73
2022/08/28 07:19:10;;;;;;;16.13;14.43;;;20.10;93.50;;;21.82;69.27;97967.66;5062416;28;21023;-71
2022/08/28 07:21:41;;;;;;;17.33;15.60;;;20.30;92.80;;;22.10;68.77;97960.47;5065869;28;20830;-71
2022/08/28 07:24:10;;;;;;;14.50;13.27;;;20.50;92.60;;;22.29;68.01;97971.53;5058487;28;20866;-73
2022/08/28 07:26:40;;;;;;;17.20;13.60;;;20.70;92.20;;;22.32;67.11;97962.69;5057801;28;20457;-71
2022/08/28 07:29:10;;;;;;;14.37;13.00;;;20.80;91.70;;;22.57;67.07;97971.78;5058422;28;20658;-72
2022/08/28 07:31:40;;;;;;;13.97;12.47;;;20.80;91.80;;;22.38;66.92;97970.91;5058665;28;20515;-72
2022/08/28 07:34:09;;;;;;;14.37;12.97;;;20.80;91.50;;;22.35;66.86;97970.34;5048210;28;20484;-73
2022/08/28 07:36:38;;;;;;;14.50;12.97;;;20.70;91.40;;;21.91;67.77;97968.66;5060295;28;20611;-72
2022/08/28 07:39:07;;;;;;;13.63;12.40;;;20.50;91.20;;;21.96;67.55;97976.88;5060013;28;20461;-72
2022/08/28 07:41:39;;;;;;;14.20;12.80;;;20.40;91.30;;;22.28;67.30;97978.16;5057094;28;20459;-72
2022/08/28 07:46:55;;;;;;;15.10;13.50;;;20.70;91.30;;;21.92;68.03;97965.63;5049297;28;20461;-71
2022/08/28 07:49:24;;;;;;;13.63;12.30;;;20.70;91.30;;;21.98;68.17;97991.16;5059923;28;20464;-73
2022/08/28 07:51:52;;;;;;;13.00;10.93;;;20.70;91.30;;;21.91;68.33;97988.75;5062490;28;20545;-73
2022/08/28 07:54:19;;;;;;;12.43;11.17;;;20.70;91.30;;;21.77;68.77;97985.03;5062346;28;20452;-74
2022/08/28 07:56:47;;;;;;;12.93;11.53;;;20.50;91.20;;;21.77;68.62;97988.63;5059355;28;20508;-73
2022/08/28 07:59:16;;;;;;;17.03;12.57;;;20.50;91.60;;;21.69;68.64;97983.72;5061685;28;20453;-73
2022/08/28 08:01:46;;;;;;;13.13;11.80;;;20.40;91.30;;;21.67;68.84;97996.94;5053782;28;20458;-71
2022/08/28 08:04:15;;;;;;;14.00;12.60;;;20.30;91.40;;;21.63;69.09;97985.69;5051546;28;20470;-73
2022/08/28 08:06:45;;;;;;;11.70;10.70;;;20.40;91.50;;;21.64;68.55;97986.50;5080435;27;20551;-73
2022/08/28 08:09:17;;;;;;;12.47;11.27;;;20.40;91.20;;;21.81;68.07;98002.56;5057602;28;20464;-73
2022/08/28 08:11:46;;;;;;;12.97;11.00;;;20.50;91.20;;;21.63;68.42;97984.88;5052793;28;20978;-73
2022/08/28 08:14:16;;;;;;;12.27;10.60;;;20.50;91.10;;;21.69;68.42;97989.22;5054027;28;20460;-74
2022/08/28 08:16:46;;;;;;;12.50;10.37;;;20.50;91.10;;;21.79;68.05;97994.63;5057165;28;20461;-73
2022/08/28 08:19:17;;;;;;;12.53;10.40;;;20.50;91.00;;;21.65;67.80;97993.66;5053798;28;20454;-72
2022/08/28 08:21:47;;;;;;;12.17;11.00;;;20.50;90.80;;;21.68;67.63;97998.59;5049472;28;20883;-73
2022/08/28 08:24:19;;;;;;;12.03;10.40;;;20.50;90.70;;;21.81;67.97;97999.03;5054001;28;20446;-73
2022/08/28 08:26:47;;;;;;;12.47;11.30;;;20.50;91.00;;;22.20;66.65;98003.56;5055074;28;20463;-75
2022/08/28 08:29:16;;;;;;;11.97;10.87;;;20.60;90.90;;;22.15;66.25;97965.94;5052710;28;20485;-73
2022/08/28 08:31:44;;;;;;;11.13;9.83;;;20.90;90.80;;;22.68;63.64;98001.94;5055950;28;20473;-73
2022/08/28 08:34:12;;;;;;;12.83;10.57;;;21.20;89.70;;;22.74;63.66;98015.31;5060903;28;20450;-72
2022/08/28 08:36:39;;;;;;;11.10;9.70;;;21.40;89.50;;;22.76;63.43;98009.50;5050129;28;20509;-73
2022/08/28 08:39:07;;;;;;;15.03;10.63;;;21.60;88.60;;;22.92;63.97;98013.69;5055546;28;20449;-74
2022/08/28 08:41:46;;;;;;;10.17;9.30;;;21.80;89.00;;;23.15;62.15;98016.69;5051205;28;20507;-73
2022/08/28 08:44:25;;;;;;;9.60;8.73;;;21.80;87.90;;;23.19;61.81;98017.72;5053894;28;20477;-73
2022/08/28 08:47:03;;;;;;;10.80;9.67;;;22.00;87.40;;;22.99;63.17;98024.34;5052323;28;20519;-71
2022/08/28 08:49:35;;;;;;;12.33;9.37;;;22.00;87.60;;;23.12;62.96;98028.28;5057253;28;20561;-73
2022/08/28 08:52:30;;;;;;;9.70;8.80;;;22.00;87.60;;;23.67;58.96;98021.41;5063809;28;20458;-72
2022/08/28 08:55:23;;;;;;;9.47;8.57;;;22.50;85.80;;;23.40;59.21;98019.38;5066627;28;20527;-83
2022/08/28 08:57:58;;;;;;;14.10;9.60;;;22.30;85.30;;;23.52;60.15;98025.25;5063574;28;20461;-79
2022/08/28 09:00:27;;;;;;;8.93;7.73;;;22.30;85.70;;;23.39;59.88;98032.31;5056150;28;20492;-76
2022/08/28 09:03:13;;;;;;;9.50;8.50;;;22.40;85.10;;;23.38;58.88;98036.19;5063539;28;20978;-76
2022/08/28 09:05:47;;;;;;;9.27;8.20;;;22.20;84.60;;;23.56;58.88;98025.44;5053422;28;20453;-78
2022/08/28 09:08:27;;;;;;;9.23;8.33;;;22.30;85.00;;;23.83;58.82;98032.16;5050738;28;20460;-73
2022/08/28 09:11:04;;;;;;;9.87;8.83;;;22.50;85.10;;;23.41;59.86;98034.78;5082773;28;20526;-73
2022/08/28 09:13:45;;;;;;;9.70;7.63;;;22.40;84.80;;;23.63;59.36;98028.66;5056267;28;20465;-76
2022/08/28 09:16:25;;;;;;;11.20;9.50;;;22.60;84.80;;;23.80;58.72;98039.09;5088356;28;20457;-73
2022/08/28 09:18:55;;;;;;;8.50;7.70;;;22.60;84.50;;;23.71;58.98;98035.41;5060499;28;20458;-73
2022/08/28 09:21:30;;;;;;;8.30;7.57;;;22.60;84.40;;;23.98;58.08;98031.88;5069663;28;20794;-73
2022/08/28 09:24:02;;;;;;;11.23;8.80;;;22.70;84.20;;;23.92;58.44;98038.63;5060425;28;20505;-74
2022/08/28 09:26:30;;;;;;;9.70;8.73;;;22.80;83.80;;;24.03;57.37;98020.78;5055645;28;21001;-72
2022/08/28 09:29:04;;;;;;;9.53;7.60;;;22.90;83.50;;;24.40;56.28;98020.91;5059102;28;21061;-74
2022/08/28 09:31:37;;;;;;;17.10;8.60;;;23.10;83.40;;;24.09;57.60;98028.97;5058633;28;20961;-76
2022/08/28 09:34:28;;;;;;;12.07;9.50;;;23.10;83.40;;;24.44;56.56;98023.88;5055288;28;20457;-74
2022/08/28 09:36:58;;;;;;;8.40;7.60;;;23.10;83.20;;;24.28;55.67;98018.66;5063881;28;20463;-74
2022/08/28 09:39:29;;;;;;;9.17;7.90;;;23.20;82.20;;;24.27;55.56;98027.28;5057636;28;20562;-75
2022/08/28 09:45:00;;;;;;;8.27;7.43;;;23.30;81.50;;;24.45;54.66;98022.75;5055559;28;20809;-76
2022/08/28 09:47:48;;;;;;;9.57;7.93;;;23.40;80.90;;;24.33;56.09;98031.56;5063664;28;20816;-76
2022/08/28 09:50:30;;;;;;;8.77;6.93;;;23.30;81.00;;;24.50;54.66;98027.34;5063048;28;20468;-75
2022/08/28 09:53:00;;;;;;;8.13;7.43;;;23.40;81.00;;;24.49;54.52;98021.00;5059131;28;20501;-72
2022/08/28 09:55:41;;;;;;;7.70;6.90;;;23.40;80.60;;;24.60;53.48;98014.16;5071518;28;20461;-72
2022/08/28 09:58:09;;;;;;;8.80;8.00;;;23.60;80.50;;;24.38;54.63;98028.69;5054554;28;20459;-73
2022/08/28 10:00:46;;;;;;;7.20;6.60;;;23.40;79.90;;;24.77;53.83;98023.78;5061517;28;20839;-77
2022/08/28 10:03:20;;;;;;;8.97;7.40;;;23.60;79.80;;;25.22;52.91;98025.00;5057365;28;20488;-74
2022/08/28 10:06:03;;;;;;;7.27;6.60;;;23.90;79.80;;;25.13;52.55;98031.28;5052161;28;21115;-73
2022/08/28 10:09:05;;;;;;;8.10;7.40;;;24.10;78.60;;;25.05;52.38;98023.72;5055479;28;20462;-75
2022/08/28 10:11:41;;;;;;;7.40;6.80;;;24.00;78.20;;;25.12;52.73;98024.13;5069904;28;20833;-76
2022/08/28 10:14:28;;;;;;;7.10;6.47;;;24.10;78.80;;;25.97;49.94;98025.38;5057413;28;20946;-74
2022/08/28 10:17:05;;;;;;;9.17;6.90;;;24.60;77.70;;;26.29;49.08;98017.09;5059261;28;20550;-76
2022/08/28 10:19:46;;;;;;;6.93;6.13;;;24.90;77.10;;;25.97;49.63;98025.38;5057254;28;20470;-75
2022/08/28 10:22:28;;;;;;;7.77;6.97;;;24.90;76.70;;;25.85;49.66;98027.91;5056530;28;21057;-74
2022/08/28 10:25:16;;;;;;;6.83;6.33;;;24.90;76.20;;;25.54;51.32;98018.47;5050235;28;20459;-79
2022/08/28 10:28:10;;;;;;;7.47;6.77;;;24.70;76.60;;;25.61;50.44;98023.53;5056232;28;20505;-72
2022/08/28 10:30:46;;;;;;;8.03;6.77;;;24.40;76.60;;;25.65;50.36;98019.00;5069961;28;20495;-76